Main page
METAR-TAF:

METAR-TAF

Airports :

Wattay International Airport

Vientiane, Laos

latitude: 17-57N, longitude: 102-34E, elevation: 171 m

Current weather observation

The report was made 55 minutes ago, at 17:00 UTC
Wind 2 kt from the North/Northwest
Temperature 21°C
Humidity 78%
Pressure 1011 hPa
Visibility: 5000 m
mist,

METAR: VLVT 031700Z 34002KT 5000 BR NSC 21/17 Q1011 NOSIG

Time: 00:55 (17:55 UTC)

Forecast

The report was made 55 minutes ago, at 17:00 UTC
Forecast valid from 03 at 18 UTC to 04 at 18 UTC
Wind 4 kt from the West
Visibility: 5000 m
Few clouds at a height of 5000 ft
Few clouds at a height of 10000 ft
mist,

TAF: VLVT 031700Z 0318/0418 27004KT 5000 BR FEW050 FEW100

Weather observations and forecasts of more than 4000 airports (METAR and TAF reports).

The available stations are represented by yellow and red dots on the map.

Hover mouse over dot to see the name of the station.

Then click to see weather observations and forecasts.

To change the map : click on the green buttons with a black cross to zoom in, on the green button with a dash to zoom out, or on the green arrows for adjacent maps.


METAR-TAF: